sensor_id;sensor_type;location;lat;lon;timestamp;pressure;altitude;pressure_sealevel;temperature;humidity
3082;BME280;1551;51.046;7.010;2022-10-16T00:01:46;100443.81;;;15.53;nan
3082;BME280;1551;51.046;7.010;2022-10-16T00:04:35;100455.69;;;15.59;nan
3082;BME280;1551;51.046;7.010;2022-10-16T00:07:24;100460.16;;;15.54;nan
3082;BME280;1551;51.046;7.010;2022-10-16T00:10:13;100474.88;;;15.50;nan
3082;BME280;1551;51.046;7.010;2022-10-16T00:13:03;100471.56;;;15.47;nan
3082;BME280;1551;51.046;7.010;2022-10-16T00:15:55;100464.72;;;15.46;nan
3082;BME280;1551;51.046;7.010;2022-10-16T00:18:44;100469.94;;;15.43;nan
3082;BME280;1551;51.046;7.010;2022-10-16T00:21:34;100484.69;;;15.39;nan
3082;BME280;1551;51.046;7.010;2022-10-16T00:24:23;100488.09;;;15.40;nan
3082;BME280;1551;51.046;7.010;2022-10-16T00:27:12;100493.25;;;15.40;nan
3082;BME280;1551;51.046;7.010;2022-10-16T00:30:01;100494.06;;;15.42;nan
3082;BME280;1551;51.046;7.010;2022-10-16T00:32:49;100489.75;;;15.42;nan
3082;BME280;1551;51.046;7.010;2022-10-16T00:35:38;100485.41;;;15.44;nan
3082;BME280;1551;51.046;7.010;2022-10-16T00:38:27;100478.63;;;15.40;nan
3082;BME280;1551;51.046;7.010;2022-10-16T00:41:17;100477.81;;;15.38;nan
3082;BME280;1551;51.046;7.010;2022-10-16T00:44:46;100477.03;;;15.36;nan
3082;BME280;1551;51.046;7.010;2022-10-16T00:47:39;100476.25;;;15.34;nan
3082;BME280;1551;51.046;7.010;2022-10-16T00:50:33;100472.88;;;15.32;nan
3082;BME280;1551;51.046;7.010;2022-10-16T00:53:24;100471.31;;;15.28;nan
3082;BME280;1551;51.046;7.010;2022-10-16T00:56:14;100478.97;;;15.30;nan
3082;BME280;1551;51.046;7.010;2022-10-16T00:59:07;100466.16;;;15.28;nan
3082;BME280;1551;51.046;7.010;2022-10-16T01:02:01;100465.38;;;15.25;nan
3082;BME280;1551;51.046;7.010;2022-10-16T01:04:52;100477.56;;;15.21;nan
3082;BME280;1551;51.046;7.010;2022-10-16T01:07:56;100472.53;;;15.17;nan
3082;BME280;1551;51.046;7.010;2022-10-16T01:11:10;100481.22;;;15.14;nan
3082;BME280;1551;51.046;7.010;2022-10-16T01:14:07;100485.69;;;15.07;nan
3082;BME280;1551;51.046;7.010;2022-10-16T01:17:04;100478.19;;;15.01;nan
3082;BME280;1551;51.046;7.010;2022-10-16T01:29:35;100492.91;;;14.98;nan
3082;BME280;1551;51.046;7.010;2022-10-16T01:32:32;100497.94;;;15.01;nan
3082;BME280;1551;51.046;7.010;2022-10-16T01:35:26;100486.69;;;15.03;nan
3082;BME280;1551;51.046;7.010;2022-10-16T01:38:19;100481.53;;;15.03;nan
3082;BME280;1551;51.046;7.010;2022-10-16T01:41:17;100477.22;;;15.04;nan
3082;BME280;1551;51.046;7.010;2022-10-16T01:44:13;100495.38;;;15.01;nan
3082;BME280;1551;51.046;7.010;2022-10-16T01:47:07;100504.00;;;15.00;nan
3082;BME280;1551;51.046;7.010;2022-10-16T01:49:59;100485.19;;;14.96;nan
3082;BME280;1551;51.046;7.010;2022-10-16T01:52:51;100496.97;;;15.05;nan
3082;BME280;1551;51.046;7.010;2022-10-16T01:55:44;100493.34;;;15.10;nan
3082;BME280;1551;51.046;7.010;2022-10-16T01:58:39;100507.00;;;15.14;nan
3082;BME280;1551;51.046;7.010;2022-10-16T02:01:33;100505.16;;;15.18;nan
3082;BME280;1551;51.046;7.010;2022-10-16T02:04:34;100505.94;;;15.20;nan
3082;BME280;1551;51.046;7.010;2022-10-16T02:07:25;100503.41;;;15.18;nan
3082;BME280;1551;51.046;7.010;2022-10-16T02:10:14;100497.38;;;15.19;nan
3082;BME280;1551;51.046;7.010;2022-10-16T02:13:10;100486.41;;;15.12;nan
3082;BME280;1551;51.046;7.010;2022-10-16T02:16:00;100499.91;;;15.21;nan
3082;BME280;1551;51.046;7.010;2022-10-16T02:18:49;100497.25;;;15.22;nan
3082;BME280;1551;51.046;7.010;2022-10-16T02:21:49;100513.50;;;15.26;nan
3082;BME280;1551;51.046;7.010;2022-10-16T02:24:55;100516.06;;;15.26;nan
3082;BME280;1551;51.046;7.010;2022-10-16T02:28:03;100499.00;;;15.22;nan
3082;BME280;1551;51.046;7.010;2022-10-16T02:31:02;100498.19;;;15.21;nan
3082;BME280;1551;51.046;7.010;2022-10-16T02:33:52;100510.84;;;15.27;nan
3082;BME280;1551;51.046;7.010;2022-10-16T02:36:44;100521.09;;;15.29;nan
3082;BME280;1551;51.046;7.010;2022-10-16T02:39:34;100518.59;;;15.27;nan
3082;BME280;1551;51.046;7.010;2022-10-16T02:42:29;100530.53;;;15.30;nan
3082;BME280;1551;51.046;7.010;2022-10-16T02:45:22;100518.53;;;15.29;nan
3082;BME280;1551;51.046;7.010;2022-10-16T02:48:11;100516.81;;;15.29;nan
3082;BME280;1551;51.046;7.010;2022-10-16T02:51:01;100512.56;;;15.28;nan
3082;BME280;1551;51.046;7.010;2022-10-16T02:53:50;100507.44;;;15.27;nan
3082;BME280;1551;51.046;7.010;2022-10-16T02:56:38;100504.03;;;15.26;nan
3082;BME280;1551;51.046;7.010;2022-10-16T02:59:27;100531.41;;;15.30;nan
3082;BME280;1551;51.046;7.010;2022-10-16T03:02:16;100522.66;;;15.34;nan
3082;BME280;1551;51.046;7.010;2022-10-16T03:05:06;100517.59;;;15.31;nan
3082;BME280;1551;51.046;7.010;2022-10-16T03:07:55;100518.34;;;15.35;nan
3082;BME280;1551;51.046;7.010;2022-10-16T03:10:44;100523.56;;;15.33;nan
3082;BME280;1551;51.046;7.010;2022-10-16T03:13:33;100512.44;;;15.31;nan
3082;BME280;1551;51.046;7.010;2022-10-16T03:16:22;100511.72;;;15.28;nan
3082;BME280;1551;51.046;7.010;2022-10-16T03:19:11;100499.84;;;15.22;nan
3082;BME280;1551;51.046;7.010;2022-10-16T03:22:00;100494.94;;;15.14;nan
3082;BME280;1551;51.046;7.010;2022-10-16T03:24:49;100488.09;;;15.13;nan
3082;BME280;1551;51.046;7.010;2022-10-16T03:27:38;100496.84;;;15.08;nan
3082;BME280;1551;51.046;7.010;2022-10-16T03:30:27;100499.66;;;15.02;nan
3082;BME280;1551;51.046;7.010;2022-10-16T03:33:16;100511.81;;;14.97;nan
3082;BME280;1551;51.046;7.010;2022-10-16T03:36:05;100509.19;;;14.98;nan
3082;BME280;1551;51.046;7.010;2022-10-16T03:38:54;100509.25;;;14.97;nan
3082;BME280;1551;51.046;7.010;2022-10-16T03:41:43;100504.97;;;14.96;nan
3082;BME280;1551;51.046;7.010;2022-10-16T03:44:32;100511.63;;;15.03;nan
3082;BME280;1551;51.046;7.010;2022-10-16T03:47:21;100511.53;;;15.06;nan
3082;BME280;1551;51.046;7.010;2022-10-16T03:50:11;100517.53;;;15.06;nan
3082;BME280;1551;51.046;7.010;2022-10-16T03:53:00;100515.84;;;15.05;nan
3082;BME280;1551;51.046;7.010;2022-10-16T03:55:50;100520.97;;;15.07;nan
3082;BME280;1551;51.046;7.010;2022-10-16T03:58:38;100534.72;;;15.06;nan
3082;BME280;1551;51.046;7.010;2022-10-16T04:01:27;100544.97;;;15.09;nan
3082;BME280;1551;51.046;7.010;2022-10-16T04:04:16;100548.38;;;15.09;nan
3082;BME280;1551;51.046;7.010;2022-10-16T04:07:05;100544.09;;;15.08;nan
3082;BME280;1551;51.046;7.010;2022-10-16T04:09:54;100535.66;;;15.05;nan
3082;BME280;1551;51.046;7.010;2022-10-16T04:12:43;100553.56;;;15.08;nan
3082;BME280;1551;51.046;7.010;2022-10-16T04:15:32;100557.88;;;15.07;nan
3082;BME280;1551;51.046;7.010;2022-10-16T04:18:21;100549.22;;;15.10;nan
3082;BME280;1551;51.046;7.010;2022-10-16T04:21:10;100550.97;;;15.09;nan
3082;BME280;1551;51.046;7.010;2022-10-16T04:23:59;100552.72;;;15.07;nan
3082;BME280;1551;51.046;7.010;2022-10-16T04:26:48;100556.94;;;15.10;nan
3082;BME280;1551;51.046;7.010;2022-10-16T04:29:37;100565.66;;;15.06;nan
3082;BME280;1551;51.046;7.010;2022-10-16T04:32:26;100561.31;;;15.08;nan
3082;BME280;1551;51.046;7.010;2022-10-16T04:35:19;100564.72;;;15.08;nan
3082;BME280;1551;51.046;7.010;2022-10-16T04:38:08;100563.09;;;15.06;nan
3082;BME280;1551;51.046;7.010;2022-10-16T04:40:57;100564.09;;;15.02;nan
3082;BME280;1551;51.046;7.010;2022-10-16T04:43:46;100552.97;;;15.00;nan
3082;BME280;1551;51.046;7.010;2022-10-16T04:46:35;100559.81;;;15.01;nan
3082;BME280;1551;51.046;7.010;2022-10-16T04:49:24;100570.09;;;15.02;nan
3082;BME280;1551;51.046;7.010;2022-10-16T04:52:13;100566.66;;;15.02;nan
3082;BME280;1551;51.046;7.010;2022-10-16T04:55:02;100560.78;;;14.97;nan
3082;BME280;1551;51.046;7.010;2022-10-16T04:57:51;100572.13;;;14.91;nan
3082;BME280;1551;51.046;7.010;2022-10-16T05:00:40;100582.41;;;14.93;nan
3082;BME280;1551;51.046;7.010;2022-10-16T05:03:29;100582.28;;;14.96;nan
3082;BME280;1551;51.046;7.010;2022-10-16T05:06:18;100588.28;;;14.96;nan
3082;BME280;1551;51.046;7.010;2022-10-16T05:09:07;100582.25;;;14.97;nan
3082;BME280;1551;51.046;7.010;2022-10-16T05:11:56;100593.50;;;14.95;nan
3082;BME280;1551;51.046;7.010;2022-10-16T05:14:45;100599.66;;;14.91;nan
3082;BME280;1551;51.046;7.010;2022-10-16T05:17:34;100604.88;;;14.88;nan
3082;BME280;1551;51.046;7.010;2022-10-16T05:20:23;100590.34;;;14.85;nan
3082;BME280;1551;51.046;7.010;2022-10-16T05:23:12;100611.69;;;14.90;nan
3082;BME280;1551;51.046;7.010;2022-10-16T05:26:01;100608.25;;;14.90;nan
3082;BME280;1551;51.046;7.010;2022-10-16T05:28:50;100615.19;;;14.88;nan
3082;BME280;1551;51.046;7.010;2022-10-16T05:31:39;100609.13;;;14.89;nan
3082;BME280;1551;51.046;7.010;2022-10-16T05:34:28;100615.91;;;14.93;nan
3082;BME280;1551;51.046;7.010;2022-10-16T05:37:17;100620.22;;;14.92;nan
3082;BME280;1551;51.046;7.010;2022-10-16T05:40:07;100620.06;;;14.97;nan
3082;BME280;1551;51.046;7.010;2022-10-16T05:42:56;100618.13;;;15.05;nan
3082;BME280;1551;51.046;7.010;2022-10-16T05:46:00;100628.44;;;15.05;nan
3082;BME280;1551;51.046;7.010;2022-10-16T05:48:52;100633.63;;;15.03;nan
3082;BME280;1551;51.046;7.010;2022-10-16T05:51:41;100625.94;;;15.02;nan
3082;BME280;1551;51.046;7.010;2022-10-16T05:54:30;100634.53;;;15.01;nan
3082;BME280;1551;51.046;7.010;2022-10-16T05:57:19;100635.34;;;15.03;nan
3082;BME280;1551;51.046;7.010;2022-10-16T06:00:09;100646.56;;;15.02;nan
3082;BME280;1551;51.046;7.010;2022-10-16T06:03:04;100654.44;;;14.97;nan
3082;BME280;1551;51.046;7.010;2022-10-16T06:05:55;100648.50;;;14.94;nan
3082;BME280;1551;51.046;7.010;2022-10-16T06:08:45;100660.53;;;14.93;nan
3082;BME280;1551;51.046;7.010;2022-10-16T06:11:34;100651.19;;;14.91;nan
3082;BME280;1551;51.046;7.010;2022-10-16T06:14:23;100663.34;;;14.86;nan
3082;BME280;1551;51.046;7.010;2022-10-16T06:17:13;100672.00;;;14.83;nan
3082;BME280;1551;51.046;7.010;2022-10-16T06:20:03;100663.34;;;14.86;nan
3082;BME280;1551;51.046;7.010;2022-10-16T06:22:52;100677.84;;;14.90;nan
3082;BME280;1551;51.046;7.010;2022-10-16T06:25:41;100667.53;;;14.90;nan
3082;BME280;1551;51.046;7.010;2022-10-16T06:28:30;100669.91;;;14.96;nan
3082;BME280;1551;51.046;7.010;2022-10-16T06:31:20;100676.69;;;15.00;nan
3082;BME280;1551;51.046;7.010;2022-10-16T06:34:10;100673.00;;;15.08;nan
3082;BME280;1551;51.046;7.010;2022-10-16T06:37:00;100675.44;;;15.13;nan
3082;BME280;1551;51.046;7.010;2022-10-16T06:39:49;100677.84;;;15.19;nan
3082;BME280;1551;51.046;7.010;2022-10-16T06:42:38;100681.25;;;15.20;nan
3082;BME280;1551;51.046;7.010;2022-10-16T06:45:27;100705.25;;;15.23;nan
3082;BME280;1551;51.046;7.010;2022-10-16T06:48:16;100711.72;;;15.36;nan
3082;BME280;1551;51.046;7.010;2022-10-16T06:51:09;100713.97;;;15.48;nan
3082;BME280;1551;51.046;7.010;2022-10-16T06:53:58;100724.09;;;15.54;nan
3082;BME280;1551;51.046;7.010;2022-10-16T06:56:47;100721.44;;;15.57;nan
3082;BME280;1551;51.046;7.010;2022-10-16T06:59:36;100729.88;;;15.62;nan
3082;BME280;1551;51.046;7.010;2022-10-16T07:02:25;100727.16;;;15.67;nan
3082;BME280;1551;51.046;7.010;2022-10-16T07:05:14;100735.66;;;15.70;nan
3082;BME280;1551;51.046;7.010;2022-10-16T07:08:03;100743.41;;;15.70;nan
3082;BME280;1551;51.046;7.010;2022-10-16T07:11:01;100739.84;;;15.74;nan
3082;BME280;1551;51.046;7.010;2022-10-16T07:13:51;100750.75;;;15.82;nan
3082;BME280;1551;51.046;7.010;2022-10-16T07:16:40;100748.72;;;15.94;nan
3082;BME280;1551;51.046;7.010;2022-10-16T07:19:29;100760.53;;;16.01;nan
3082;BME280;1551;51.046;7.010;2022-10-16T07:22:18;100765.50;;;16.07;nan
3082;BME280;1551;51.046;7.010;2022-10-16T07:25:07;100766.19;;;16.12;nan
3082;BME280;1551;51.046;7.010;2022-10-16T07:27:57;100776.94;;;16.26;nan
3082;BME280;1551;51.046;7.010;2022-10-16T07:30:46;100787.06;;;16.32;nan
3082;BME280;1551;51.046;7.010;2022-10-16T07:33:35;100790.19;;;16.41;nan
3082;BME280;1551;51.046;7.010;2022-10-16T07:36:23;100787.38;;;16.49;nan
3082;BME280;1551;51.046;7.010;2022-10-16T07:39:12;100798.44;;;16.54;nan
3082;BME280;1551;51.046;7.010;2022-10-16T07:42:02;100799.22;;;16.56;nan
3082;BME280;1551;51.046;7.010;2022-10-16T07:44:50;100801.50;;;16.65;nan
3082;BME280;1551;51.046;7.010;2022-10-16T07:47:39;100803.78;;;16.74;nan
3082;BME280;1551;51.046;7.010;2022-10-16T07:50:28;100809.97;;;16.70;nan
3082;BME280;1551;51.046;7.010;2022-10-16T07:53:17;100809.97;;;16.70;nan
3082;BME280;1551;51.046;7.010;2022-10-16T07:56:07;100813.34;;;16.72;nan
3082;BME280;1551;51.046;7.010;2022-10-16T07:58:56;100822.91;;;16.95;nan
3082;BME280;1551;51.046;7.010;2022-10-16T08:01:45;100827.03;;;17.25;nan
3082;BME280;1551;51.046;7.010;2022-10-16T08:04:34;100831.19;;;17.54;nan
3082;BME280;1551;51.046;7.010;2022-10-16T08:07:23;100838.72;;;17.83;nan
3082;BME280;1551;51.046;7.010;2022-10-16T08:10:16;100840.41;;;18.07;nan
3082;BME280;1551;51.046;7.010;2022-10-16T08:13:06;100839.78;;;18.44;nan
3082;BME280;1551;51.046;7.010;2022-10-16T08:15:55;100846.56;;;18.90;nan
3082;BME280;1551;51.046;7.010;2022-10-16T08:18:44;100852.59;;;19.31;nan
3082;BME280;1551;51.046;7.010;2022-10-16T08:21:33;100859.81;;;19.44;nan
3082;BME280;1551;51.046;7.010;2022-10-16T08:24:21;100853.25;;;19.74;nan
3082;BME280;1551;51.046;7.010;2022-10-16T08:27:10;100867.84;;;19.96;nan
3082;BME280;1551;51.046;7.010;2022-10-16T08:29:59;100864.63;;;19.90;nan
3082;BME280;1551;51.046;7.010;2022-10-16T08:32:49;100862.66;;;19.77;nan
3082;BME280;1551;51.046;7.010;2022-10-16T08:35:38;100879.22;;;19.74;nan
3082;BME280;1551;51.046;7.010;2022-10-16T08:38:27;100877.00;;;19.85;nan
3082;BME280;1551;51.046;7.010;2022-10-16T08:47:38;100887.03;;;20.30;nan
3082;BME280;1551;51.046;7.010;2022-10-16T08:50:32;100886.25;;;20.47;nan
3082;BME280;1551;51.046;7.010;2022-10-16T08:53:28;100900.91;;;20.67;nan
3082;BME280;1551;51.046;7.010;2022-10-16T08:56:19;100909.66;;;20.83;nan
3082;BME280;1551;51.046;7.010;2022-10-16T08:59:20;100908.19;;;21.30;nan
3082;BME280;1551;51.046;7.010;2022-10-16T09:05:41;100905.88;;;21.74;nan
3082;BME280;1551;51.046;7.010;2022-10-16T09:12:22;100919.16;;;22.80;nan
3082;BME280;1551;51.046;7.010;2022-10-16T09:18:15;100913.88;;;23.98;nan
3082;BME280;1551;51.046;7.010;2022-10-16T09:21:33;100911.09;;;24.15;nan
3082;BME280;1551;51.046;7.010;2022-10-16T09:24:26;100909.09;;;24.18;nan
3082;BME280;1551;51.046;7.010;2022-10-16T09:27:15;100911.63;;;25.00;nan
3082;BME280;1551;51.046;7.010;2022-10-16T09:30:16;100917.25;;;25.33;nan
3082;BME280;1551;51.046;7.010;2022-10-16T09:33:08;100916.22;;;25.86;nan
3082;BME280;1551;51.046;7.010;2022-10-16T09:35:58;100922.84;;;25.54;nan
3082;BME280;1551;51.046;7.010;2022-10-16T09:38:47;100924.50;;;25.80;nan
3082;BME280;1551;51.046;7.010;2022-10-16T09:41:44;100934.38;;;26.38;nan
3082;BME280;1551;51.046;7.010;2022-10-16T09:44:34;100920.91;;;26.42;nan
3082;BME280;1551;51.046;7.010;2022-10-16T09:47:26;100923.22;;;26.47;nan
3082;BME280;1551;51.046;7.010;2022-10-16T09:50:27;100926.31;;;26.88;nan
3082;BME280;1551;51.046;7.010;2022-10-16T09:53:16;100933.72;;;27.29;nan
3082;BME280;1551;51.046;7.010;2022-10-16T09:56:21;100926.19;;;26.66;nan
3082;BME280;1551;51.046;7.010;2022-10-16T09:59:15;100920.53;;;26.59;nan
3082;BME280;1551;51.046;7.010;2022-10-16T10:02:12;100935.88;;;27.24;nan
3082;BME280;1551;51.046;7.010;2022-10-16T10:05:04;100939.94;;;27.85;nan
3082;BME280;1551;51.046;7.010;2022-10-16T10:07:59;100941.72;;;27.95;nan
3082;BME280;1551;51.046;7.010;2022-10-16T10:10:49;100937.56;;;28.04;nan
3082;BME280;1551;51.046;7.010;2022-10-16T10:13:38;100926.53;;;28.75;nan
3082;BME280;1551;51.046;7.010;2022-10-16T10:16:27;100927.69;;;28.39;nan
3082;BME280;1551;51.046;7.010;2022-10-16T10:19:18;100928.97;;;28.13;nan
3082;BME280;1551;51.046;7.010;2022-10-16T10:26:01;100904.38;;;29.90;nan
3082;BME280;1551;51.046;7.010;2022-10-16T10:32:16;100925.47;;;26.88;nan
3082;BME280;1551;51.046;7.010;2022-10-16T10:35:19;100923.25;;;25.60;nan
3082;BME280;1551;51.046;7.010;2022-10-16T10:41:19;100926.84;;;23.85;nan
3082;BME280;1551;51.046;7.010;2022-10-16T10:50:41;100929.72;;;24.78;nan
3082;BME280;1551;51.046;7.010;2022-10-16T10:54:01;100933.50;;;26.01;nan
3082;BME280;1551;51.046;7.010;2022-10-16T10:56:58;100926.19;;;26.42;nan
3082;BME280;1551;51.046;7.010;2022-10-16T11:00:02;100935.69;;;27.03;nan
3082;BME280;1551;51.046;7.010;2022-10-16T11:06:00;100943.72;;;29.93;nan
3082;BME280;1551;51.046;7.010;2022-10-16T11:09:08;100922.41;;;30.25;nan
3082;BME280;1551;51.046;7.010;2022-10-16T11:12:09;100942.44;;;30.96;nan
3082;BME280;1551;51.046;7.010;2022-10-16T11:15:18;100938.66;;;28.02;nan
3082;BME280;1551;51.046;7.010;2022-10-16T11:18:21;100930.44;;;28.38;nan
3082;BME280;1551;51.046;7.010;2022-10-16T11:21:14;100945.38;;;29.94;nan
3082;BME280;1551;51.046;7.010;2022-10-16T11:27:43;100938.63;;;26.88;nan
3082;BME280;1551;51.046;7.010;2022-10-16T11:36:40;100948.31;;;30.41;nan
3082;BME280;1551;51.046;7.010;2022-10-16T11:39:31;100951.19;;;32.18;nan
3082;BME280;1551;51.046;7.010;2022-10-16T11:42:32;100957.59;;;32.16;nan
3082;BME280;1551;51.046;7.010;2022-10-16T11:45:39;100951.09;;;30.39;nan
3082;BME280;1551;51.046;7.010;2022-10-16T11:48:35;100963.78;;;30.06;nan
3082;BME280;1551;51.046;7.010;2022-10-16T11:51:40;100965.09;;;31.18;nan
3082;BME280;1551;51.046;7.010;2022-10-16T11:54:52;100969.19;;;33.04;nan
3082;BME280;1551;51.046;7.010;2022-10-16T11:57:48;100975.69;;;33.53;nan
3082;BME280;1551;51.046;7.010;2022-10-16T12:07:07;100965.06;;;31.56;nan
3082;BME280;1551;51.046;7.010;2022-10-16T12:10:10;100960.28;;;31.69;nan
3082;BME280;1551;51.046;7.010;2022-10-16T12:12:59;100959.38;;;30.75;nan
3082;BME280;1551;51.046;7.010;2022-10-16T12:15:48;100964.59;;;29.14;nan
3082;BME280;1551;51.046;7.010;2022-10-16T12:18:38;100977.16;;;28.03;nan
3082;BME280;1551;51.046;7.010;2022-10-16T12:21:30;100969.59;;;28.65;nan
3082;BME280;1551;51.046;7.010;2022-10-16T12:24:41;100958.56;;;28.48;nan
3082;BME280;1551;51.046;7.010;2022-10-16T12:27:32;100961.69;;;27.19;nan
3082;BME280;1551;51.046;7.010;2022-10-16T12:30:23;100962.28;;;25.90;nan
3082;BME280;1551;51.046;7.010;2022-10-16T12:33:21;100963.25;;;25.76;nan
3082;BME280;1551;51.046;7.010;2022-10-16T12:36:26;100952.34;;;26.44;nan
3082;BME280;1551;51.046;7.010;2022-10-16T12:39:27;100952.09;;;27.53;nan
3082;BME280;1551;51.046;7.010;2022-10-16T12:45:41;100945.59;;;28.99;nan
3082;BME280;1551;51.046;7.010;2022-10-16T12:48:30;100939.28;;;30.43;nan
3082;BME280;1551;51.046;7.010;2022-10-16T12:51:25;100947.19;;;32.32;nan
3082;BME280;1551;51.046;7.010;2022-10-16T12:54:35;100947.28;;;33.46;nan
3082;BME280;1551;51.046;7.010;2022-10-16T13:00:44;100953.09;;;31.89;nan
3082;BME280;1551;51.046;7.010;2022-10-16T13:10:26;100957.19;;;31.08;nan
3082;BME280;1551;51.046;7.010;2022-10-16T13:16:50;100949.72;;;29.13;nan
3082;BME280;1551;51.046;7.010;2022-10-16T13:20:17;100956.72;;;30.75;nan
3082;BME280;1551;51.046;7.010;2022-10-16T13:23:13;100956.88;;;31.02;nan
3082;BME280;1551;51.046;7.010;2022-10-16T13:26:39;100947.66;;;28.96;nan
3082;BME280;1551;51.046;7.010;2022-10-16T13:29:32;100962.34;;;28.02;nan
3082;BME280;1551;51.046;7.010;2022-10-16T13:32:22;100955.69;;;27.52;nan
3082;BME280;1551;51.046;7.010;2022-10-16T13:35:26;100959.44;;;27.93;nan
3082;BME280;1551;51.046;7.010;2022-10-16T13:38:22;100957.41;;;29.57;nan
3082;BME280;1551;51.046;7.010;2022-10-16T13:41:16;100963.06;;;32.94;nan
3082;BME280;1551;51.046;7.010;2022-10-16T13:44:19;100970.44;;;34.79;nan
3082;BME280;1551;51.046;7.010;2022-10-16T13:47:17;100967.13;;;34.27;nan
3082;BME280;1551;51.046;7.010;2022-10-16T13:50:13;100973.59;;;35.47;nan
3082;BME280;1551;51.046;7.010;2022-10-16T13:53:13;100969.63;;;35.51;nan
3082;BME280;1551;51.046;7.010;2022-10-16T13:56:06;100969.78;;;34.93;nan
3082;BME280;1551;51.046;7.010;2022-10-16T13:59:06;100955.28;;;32.57;nan
3082;BME280;1551;51.046;7.010;2022-10-16T14:01:57;100952.75;;;31.74;nan
3082;BME280;1551;51.046;7.010;2022-10-16T14:04:47;100953.50;;;30.52;nan
3082;BME280;1551;51.046;7.010;2022-10-16T14:07:37;100948.47;;;29.49;nan
3082;BME280;1551;51.046;7.010;2022-10-16T14:10:29;100968.28;;;31.87;nan
3082;BME280;1551;51.046;7.010;2022-10-16T14:13:26;100958.72;;;32.13;nan
3082;BME280;1551;51.046;7.010;2022-10-16T14:16:20;100957.94;;;30.42;nan
3082;BME280;1551;51.046;7.010;2022-10-16T14:19:19;100960.00;;;28.64;nan
3082;BME280;1551;51.046;7.010;2022-10-16T14:28:23;100951.34;;;26.21;nan
3082;BME280;1551;51.046;7.010;2022-10-16T14:31:25;100953.47;;;25.78;nan
3082;BME280;1551;51.046;7.010;2022-10-16T14:34:32;100935.38;;;25.23;nan
3082;BME280;1551;51.046;7.010;2022-10-16T14:37:27;100940.06;;;25.06;nan
3082;BME280;1551;51.046;7.010;2022-10-16T14:40:17;100939.91;;;24.95;nan
3082;BME280;1551;51.046;7.010;2022-10-16T14:43:21;100932.06;;;24.68;nan
3082;BME280;1551;51.046;7.010;2022-10-16T14:46:19;100928.50;;;24.42;nan
3082;BME280;1551;51.046;7.010;2022-10-16T14:51:58;100933.38;;;24.20;nan
3082;BME280;1551;51.046;7.010;2022-10-16T14:54:51;100933.97;;;24.11;nan
3082;BME280;1551;51.046;7.010;2022-10-16T14:57:44;100944.97;;;24.02;nan
3082;BME280;1551;51.046;7.010;2022-10-16T15:00:34;100949.34;;;24.02;nan
3082;BME280;1551;51.046;7.010;2022-10-16T15:03:23;100946.84;;;24.00;nan
3082;BME280;1551;51.046;7.010;2022-10-16T15:06:14;100948.78;;;23.97;nan
3082;BME280;1551;51.046;7.010;2022-10-16T15:09:03;100951.41;;;23.82;nan
3082;BME280;1551;51.046;7.010;2022-10-16T15:11:53;100954.28;;;23.64;nan
3082;BME280;1551;51.046;7.010;2022-10-16T15:14:42;100961.84;;;23.54;nan
3082;BME280;1551;51.046;7.010;2022-10-16T15:17:30;100963.25;;;23.60;nan
3082;BME280;1551;51.046;7.010;2022-10-16T15:20:20;100964.44;;;23.54;nan
3082;BME280;1551;51.046;7.010;2022-10-16T15:23:17;100955.56;;;23.43;nan
3082;BME280;1551;51.046;7.010;2022-10-16T15:26:07;100957.53;;;23.23;nan
3082;BME280;1551;51.046;7.010;2022-10-16T15:28:56;100954.22;;;23.06;nan
3082;BME280;1551;51.046;7.010;2022-10-16T15:31:46;100959.50;;;22.90;nan
3082;BME280;1551;51.046;7.010;2022-10-16T15:34:36;100950.06;;;22.72;nan
3082;BME280;1551;51.046;7.010;2022-10-16T15:37:25;100954.03;;;22.64;nan
3082;BME280;1551;51.046;7.010;2022-10-16T15:40:15;100954.03;;;22.48;nan
3082;BME280;1551;51.046;7.010;2022-10-16T15:43:05;100955.19;;;22.42;nan
3082;BME280;1551;51.046;7.010;2022-10-16T15:46:05;100948.97;;;22.29;nan
3082;BME280;1551;51.046;7.010;2022-10-16T15:48:59;100935.25;;;22.26;nan
3082;BME280;1551;51.046;7.010;2022-10-16T15:51:48;100934.75;;;22.19;nan
3082;BME280;1551;51.046;7.010;2022-10-16T15:54:37;100937.25;;;22.05;nan
3082;BME280;1551;51.046;7.010;2022-10-16T15:57:28;100939.41;;;21.97;nan
3082;BME280;1551;51.046;7.010;2022-10-16T16:00:19;100931.31;;;21.86;nan
3082;BME280;1551;51.046;7.010;2022-10-16T16:03:13;100930.25;;;21.73;nan
3082;BME280;1551;51.046;7.010;2022-10-16T16:06:07;100920.38;;;21.62;nan
3082;BME280;1551;51.046;7.010;2022-10-16T16:08:56;100929.53;;;21.54;nan
3082;BME280;1551;51.046;7.010;2022-10-16T16:11:45;100922.25;;;21.43;nan
3082;BME280;1551;51.046;7.010;2022-10-16T16:14:34;100923.41;;;21.38;nan
3082;BME280;1551;51.046;7.010;2022-10-16T16:17:24;100917.97;;;21.25;nan
3082;BME280;1551;51.046;7.010;2022-10-16T16:20:13;100928.78;;;21.17;nan
3082;BME280;1551;51.046;7.010;2022-10-16T16:23:02;100926.25;;;21.16;nan
3082;BME280;1551;51.046;7.010;2022-10-16T16:28:58;100928.28;;;20.92;nan
3082;BME280;1551;51.046;7.010;2022-10-16T16:31:47;100935.59;;;20.84;nan
3082;BME280;1551;51.046;7.010;2022-10-16T16:34:36;100930.03;;;20.75;nan
3082;BME280;1551;51.046;7.010;2022-10-16T16:37:25;100933.59;;;20.72;nan
3082;BME280;1551;51.046;7.010;2022-10-16T16:40:14;100933.88;;;20.66;nan
3082;BME280;1551;51.046;7.010;2022-10-16T16:43:04;100945.44;;;20.61;nan
3082;BME280;1551;51.046;7.010;2022-10-16T16:45:53;100942.22;;;20.55;nan
3082;BME280;1551;51.046;7.010;2022-10-16T16:48:43;100951.69;;;20.56;nan
3082;BME280;1551;51.046;7.010;2022-10-16T16:51:32;100953.38;;;20.58;nan
3082;BME280;1551;51.046;7.010;2022-10-16T16:54:21;100953.66;;;20.51;nan
3082;BME280;1551;51.046;7.010;2022-10-16T16:57:10;100961.66;;;20.47;nan
3082;BME280;1551;51.046;7.010;2022-10-16T16:59:59;100957.75;;;20.38;nan
3082;BME280;1551;51.046;7.010;2022-10-16T17:02:49;100955.44;;;20.32;nan
3082;BME280;1551;51.046;7.010;2022-10-16T17:05:38;100921.88;;;20.08;nan
3082;BME280;1551;51.046;7.010;2022-10-16T17:08:27;100961.66;;;20.28;nan
3082;BME280;1551;51.046;7.010;2022-10-16T17:11:22;100956.69;;;20.24;nan
3082;BME280;1551;51.046;7.010;2022-10-16T17:14:12;100954.34;;;20.18;nan
3082;BME280;1551;51.046;7.010;2022-10-16T17:17:01;100954.56;;;20.13;nan
3082;BME280;1551;51.046;7.010;2022-10-16T17:19:50;100961.06;;;20.03;nan
3082;BME280;1551;51.046;7.010;2022-10-16T17:22:40;100977.22;;;20.10;nan